AAL1 KMEM-KDCA
Flight info
| Callsign | AAL1 |
|---|---|
| Flight time | N/A |
| Altitude | 37000 |
| Route | GOETZ7 DIYAB WAKOL Q34 SITTR TRUPS5 |
| Aircraft | B738/M-VGDW/C |
Departure
| Time | N/A |
|---|---|
| Airport | Memphis International Airport (KMEM) |
Arrival
| Time | 2026-05-03 21:02 |
|---|---|
| Airport | Ronald Reagan Washington National Airport (KDCA) |
| Time | Latitude | Longitude | Altitude | Speed | Heading |
|---|---|---|---|---|---|
| 2026-05-03 20:15 | 37.36610 | -82.63777 | 37080 ft | 514 kts | 66° |
| 2026-05-03 20:15 | 37.38980 | -82.55350 | 37072 ft | 514 kts | 66° |
| 2026-05-03 20:16 | 37.41366 | -82.46847 | 37078 ft | 514 kts | 66° |
| 2026-05-03 20:16 | 37.43736 | -82.38384 | 37084 ft | 516 kts | 66° |
| 2026-05-03 20:17 | 37.46101 | -82.29898 | 37071 ft | 515 kts | 67° |
| 2026-05-03 20:17 | 37.48450 | -82.21440 | 37065 ft | 517 kts | 66° |
| 2026-05-03 20:18 | 37.50811 | -82.12914 | 37064 ft | 517 kts | 66° |
| 2026-05-03 20:18 | 37.53181 | -82.04336 | 37153 ft | 521 kts | 67° |
| 2026-05-03 20:19 | 37.55559 | -81.95698 | 37152 ft | 528 kts | 67° |
| 2026-05-03 20:19 | 37.57959 | -81.86949 | 37159 ft | 534 kts | 67° |
| 2026-05-03 20:20 | 37.60377 | -81.78097 | 37155 ft | 536 kts | 67° |
| 2026-05-03 20:20 | 37.62791 | -81.69223 | 37148 ft | 536 kts | 67° |
| 2026-05-03 20:21 | 37.65202 | -81.60331 | 37155 ft | 537 kts | 67° |
| 2026-05-03 20:21 | 37.67604 | -81.51449 | 37154 ft | 536 kts | 67° |
| 2026-05-03 20:22 | 37.70006 | -81.42543 | 37148 ft | 538 kts | 67° |
| 2026-05-03 20:22 | 37.72391 | -81.33661 | 37149 ft | 537 kts | 68° |
| 2026-05-03 20:23 | 37.74783 | -81.24721 | 37158 ft | 538 kts | 68° |
| 2026-05-03 20:23 | 37.77170 | -81.15775 | 37183 ft | 540 kts | 68° |
| 2026-05-03 20:24 | 37.79792 | -81.06919 | 37189 ft | 537 kts | 63° |
| 2026-05-03 20:24 | 37.82784 | -80.98378 | 37175 ft | 536 kts | 61° |
| 2026-05-03 20:25 | 37.85902 | -80.89854 | 37159 ft | 535 kts | 60° |
| 2026-05-03 20:25 | 37.89005 | -80.81312 | 37151 ft | 535 kts | 61° |
| 2026-05-03 20:26 | 37.91597 | -80.74120 | 37145 ft | 535 kts | 61° |
| 2026-05-03 20:26 | 37.94371 | -80.66379 | 37148 ft | 536 kts | 61° |
| 2026-05-03 20:27 | 37.97426 | -80.57791 | 37157 ft | 536 kts | 61° |
| 2026-05-03 20:27 | 38.00456 | -80.49220 | 37159 ft | 537 kts | 61° |
| 2026-05-03 20:28 | 38.03494 | -80.40591 | 37154 ft | 536 kts | 61° |
| 2026-05-03 20:28 | 38.06535 | -80.31930 | 37150 ft | 536 kts | 61° |
| 2026-05-03 20:29 | 38.09551 | -80.23314 | 37135 ft | 537 kts | 61° |
| 2026-05-03 20:29 | 38.12592 | -80.14710 | 37137 ft | 536 kts | 61° |
| 2026-05-03 20:30 | 38.15655 | -80.06094 | 37123 ft | 538 kts | 61° |
| 2026-05-03 20:30 | 38.18071 | -79.99285 | 37128 ft | 536 kts | 61° |
| 2026-05-03 20:31 | 38.21121 | -79.90655 | 37130 ft | 536 kts | 61° |
| 2026-05-03 20:31 | 38.24162 | -79.82021 | 37133 ft | 536 kts | 61° |
| 2026-05-03 20:32 | 38.27199 | -79.73367 | 37105 ft | 536 kts | 61° |
| 2026-05-03 20:32 | 38.30196 | -79.64737 | 37018 ft | 532 kts | 61° |
| 2026-05-03 20:32 | 38.31654 | -79.60484 | 36710 ft | 522 kts | 61° |
| 2026-05-03 20:33 | 38.33099 | -79.56248 | 36186 ft | 519 kts | 60° |
| 2026-05-03 20:33 | 38.34538 | -79.52031 | 35577 ft | 521 kts | 60° |
| 2026-05-03 20:33 | 38.35983 | -79.47804 | 34967 ft | 520 kts | 59° |
| 2026-05-03 20:33 | 38.37407 | -79.43631 | 34499 ft | 516 kts | 59° |
| 2026-05-03 20:34 | 38.38841 | -79.39427 | 33787 ft | 515 kts | 59° |
| 2026-05-03 20:34 | 38.40245 | -79.35307 | 33050 ft | 514 kts | 59° |
| 2026-05-03 20:34 | 38.41559 | -79.31065 | 32201 ft | 518 kts | 64° |
| 2026-05-03 20:34 | 38.42689 | -79.26662 | 31549 ft | 515 kts | 68° |
| 2026-05-03 20:35 | 38.43626 | -79.22318 | 31114 ft | 507 kts | 70° |
| 2026-05-03 20:35 | 38.44462 | -79.17961 | 30439 ft | 505 kts | 72° |
| 2026-05-03 20:35 | 38.45229 | -79.13644 | 29866 ft | 499 kts | 72° |
| 2026-05-03 20:35 | 38.45957 | -79.09370 | 29301 ft | 492 kts | 72° |
| 2026-05-03 20:36 | 38.46668 | -79.05124 | 28674 ft | 487 kts | 73° |
| 2026-05-03 20:36 | 38.47366 | -79.00945 | 28100 ft | 481 kts | 72° |
| 2026-05-03 20:36 | 38.48054 | -78.96845 | 27613 ft | 472 kts | 72° |
| 2026-05-03 20:36 | 38.48744 | -78.92761 | 26980 ft | 468 kts | 72° |
| 2026-05-03 20:37 | 38.49432 | -78.88726 | 26339 ft | 464 kts | 72° |
| 2026-05-03 20:37 | 38.50109 | -78.84767 | 25816 ft | 457 kts | 72° |
| 2026-05-03 20:37 | 38.50769 | -78.80805 | 25207 ft | 452 kts | 72° |
| 2026-05-03 20:37 | 38.51388 | -78.76945 | 24550 ft | 449 kts | 72° |
| 2026-05-03 20:38 | 38.51995 | -78.73058 | 23988 ft | 443 kts | 72° |
| 2026-05-03 20:38 | 38.52585 | -78.69231 | 23469 ft | 436 kts | 73° |
| 2026-05-03 20:38 | 38.53164 | -78.65469 | 23053 ft | 428 kts | 73° |
| 2026-05-03 20:38 | 38.53725 | -78.61839 | 23037 ft | 419 kts | 72° |
| 2026-05-03 20:39 | 38.54305 | -78.58165 | 23044 ft | 427 kts | 72° |
| 2026-05-03 20:39 | 38.54909 | -78.54410 | 22982 ft | 434 kts | 72° |
| 2026-05-03 20:39 | 38.55515 | -78.50630 | 22490 ft | 433 kts | 73° |
| 2026-05-03 20:39 | 38.56102 | -78.46938 | 21972 ft | 427 kts | 73° |
| 2026-05-03 20:40 | 38.56683 | -78.43253 | 21469 ft | 420 kts | 73° |
| 2026-05-03 20:40 | 38.57251 | -78.39636 | 21077 ft | 412 kts | 73° |
| 2026-05-03 20:40 | 38.57827 | -78.36077 | 20621 ft | 414 kts | 73° |
| 2026-05-03 20:40 | 38.58441 | -78.32496 | 20038 ft | 414 kts | 73° |
| 2026-05-03 20:41 | 38.59068 | -78.28928 | 19513 ft | 411 kts | 73° |
| 2026-05-03 20:41 | 38.59747 | -78.25430 | 19019 ft | 402 kts | 69° |
| 2026-05-03 20:41 | 38.60608 | -78.22076 | 18504 ft | 393 kts | 65° |
| 2026-05-03 20:41 | 38.61584 | -78.18848 | 18017 ft | 387 kts | 63° |
| 2026-05-03 20:42 | 38.62608 | -78.15710 | 17567 ft | 388 kts | 62° |
| 2026-05-03 20:42 | 38.63674 | -78.12530 | 17085 ft | 388 kts | 62° |
| 2026-05-03 20:42 | 38.64724 | -78.09391 | 16586 ft | 381 kts | 63° |
| 2026-05-03 20:42 | 38.65734 | -78.06331 | 16107 ft | 375 kts | 63° |
| 2026-05-03 20:43 | 38.66732 | -78.03270 | 15622 ft | 369 kts | 63° |
| 2026-05-03 20:43 | 38.67709 | -78.00249 | 15143 ft | 367 kts | 63° |
| 2026-05-03 20:43 | 38.68675 | -77.97252 | 14669 ft | 369 kts | 63° |
| 2026-05-03 20:43 | 38.69644 | -77.94229 | 14182 ft | 363 kts | 63° |
| 2026-05-03 20:44 | 38.70587 | -77.91272 | 13705 ft | 356 kts | 63° |
| 2026-05-03 20:44 | 38.71515 | -77.88360 | 13348 ft | 347 kts | 63° |
| 2026-05-03 20:44 | 38.72397 | -77.85589 | 13175 ft | 333 kts | 63° |
| 2026-05-03 20:44 | 38.73320 | -77.82948 | 13016 ft | 317 kts | 56° |
| 2026-05-03 20:45 | 38.74507 | -77.80656 | 12889 ft | 300 kts | 45° |
| 2026-05-03 20:45 | 38.75874 | -77.78675 | 12630 ft | 302 kts | 40° |
| 2026-05-03 20:45 | 38.77353 | -77.76720 | 12240 ft | 307 kts | 40° |
| 2026-05-03 20:45 | 38.78820 | -77.74753 | 11853 ft | 303 kts | 41° |
| 2026-05-03 20:46 | 38.80236 | -77.72782 | 11476 ft | 299 kts | 42° |
| 2026-05-03 20:46 | 38.81592 | -77.70824 | 11109 ft | 295 kts | 45° |
| 2026-05-03 20:46 | 38.82727 | -77.68626 | 10982 ft | 294 kts | 57° |
| 2026-05-03 20:46 | 38.83643 | -77.66232 | 10881 ft | 304 kts | 60° |
| 2026-05-03 20:47 | 38.84512 | -77.63744 | 10525 ft | 306 kts | 61° |
| 2026-05-03 20:47 | 38.85364 | -77.61282 | 10144 ft | 302 kts | 61° |
| 2026-05-03 20:47 | 38.86208 | -77.58878 | 9923 ft | 291 kts | 61° |
| 2026-05-03 20:47 | 38.87040 | -77.56544 | 9672 ft | 284 kts | 60° |
| 2026-05-03 20:48 | 38.87856 | -77.54282 | 9310 ft | 281 kts | 60° |
| 2026-05-03 20:48 | 38.88678 | -77.52020 | 8978 ft | 277 kts | 60° |
| 2026-05-03 20:48 | 38.89490 | -77.49788 | 8644 ft | 281 kts | 60° |
| 2026-05-03 20:48 | 38.90288 | -77.47465 | 8278 ft | 283 kts | 66° |
| 2026-05-03 20:49 | 38.90666 | -77.45019 | 7994 ft | 283 kts | 89° |
| 2026-05-03 20:49 | 38.90210 | -77.42591 | 7804 ft | 280 kts | 115° |
| 2026-05-03 20:49 | 38.89269 | -77.40376 | 7464 ft | 290 kts | 120° |
| 2026-05-03 20:49 | 38.88242 | -77.38152 | 7113 ft | 287 kts | 120° |
| 2026-05-03 20:50 | 38.87251 | -77.35981 | 6786 ft | 283 kts | 119° |
| 2026-05-03 20:50 | 38.86273 | -77.33784 | 6452 ft | 279 kts | 119° |
| 2026-05-03 20:50 | 38.85339 | -77.31653 | 6130 ft | 275 kts | 119° |
| 2026-05-03 20:50 | 38.84404 | -77.29522 | 5982 ft | 270 kts | 119° |
| 2026-05-03 20:51 | 38.83466 | -77.27424 | 5984 ft | 280 kts | 120° |
| 2026-05-03 20:51 | 38.82481 | -77.25244 | 5976 ft | 280 kts | 120° |
| 2026-05-03 20:51 | 38.81518 | -77.23113 | 5981 ft | 279 kts | 120° |
| 2026-05-03 20:51 | 38.80539 | -77.20944 | 5981 ft | 280 kts | 120° |
| 2026-05-03 20:52 | 38.79560 | -77.18776 | 5979 ft | 279 kts | 120° |
| 2026-05-03 20:52 | 38.78594 | -77.16634 | 5980 ft | 279 kts | 120° |
| 2026-05-03 20:52 | 38.77615 | -77.14477 | 5982 ft | 278 kts | 121° |
| 2026-05-03 20:52 | 38.76466 | -77.12515 | 5972 ft | 278 kts | 137° |
| 2026-05-03 20:53 | 38.74823 | -77.11237 | 5981 ft | 276 kts | 167° |
| 2026-05-03 20:53 | 38.72942 | -77.10927 | 5985 ft | 273 kts | 181° |
| 2026-05-03 20:53 | 38.71037 | -77.10912 | 5978 ft | 272 kts | 183° |
| 2026-05-03 20:53 | 38.69159 | -77.10905 | 5977 ft | 272 kts | 182° |
| 2026-05-03 20:54 | 38.67272 | -77.10852 | 5980 ft | 272 kts | 181° |
| 2026-05-03 20:54 | 38.63560 | -77.10661 | 5544 ft | 266 kts | 180° |
| 2026-05-03 20:54 | 38.61691 | -77.10522 | 5296 ft | 269 kts | 174° |
| 2026-05-03 20:55 | 38.59932 | -77.09647 | 4985 ft | 275 kts | 142° |
| 2026-05-03 20:55 | 38.58775 | -77.07771 | 4676 ft | 270 kts | 111° |
| 2026-05-03 20:55 | 38.58398 | -77.05504 | 4379 ft | 261 kts | 88° |
| 2026-05-03 20:55 | 38.58625 | -77.03222 | 4057 ft | 253 kts | 72° |
| 2026-05-03 20:56 | 38.59352 | -77.01253 | 3751 ft | 240 kts | 43° |
| 2026-05-03 20:56 | 38.60694 | -77.00241 | 3563 ft | 219 kts | 4° |
| 2026-05-03 20:56 | 38.62097 | -77.00558 | 3425 ft | 190 kts | 328° |
| 2026-05-03 20:56 | 38.63174 | -77.01347 | 3281 ft | 168 kts | 333° |
| 2026-05-03 20:57 | 38.64274 | -77.01675 | 3028 ft | 156 kts | 351° |
| 2026-05-03 20:57 | 38.65324 | -77.01773 | 2648 ft | 149 kts | 350° |
| 2026-05-03 20:57 | 38.66328 | -77.01906 | 2419 ft | 137 kts | 348° |
| 2026-05-03 20:57 | 38.67291 | -77.02047 | 2250 ft | 144 kts | 351° |
| 2026-05-03 20:58 | 38.68300 | -77.02128 | 2092 ft | 147 kts | 352° |
| 2026-05-03 20:58 | 38.69317 | -77.02174 | 1944 ft | 146 kts | 355° |
| 2026-05-03 20:58 | 38.70347 | -77.02131 | 1904 ft | 149 kts | 357° |
| 2026-05-03 20:58 | 38.71381 | -77.02138 | 1766 ft | 148 kts | 355° |
| 2026-05-03 20:59 | 38.72396 | -77.02168 | 1617 ft | 145 kts | 354° |
| 2026-05-03 20:59 | 38.73407 | -77.02245 | 1528 ft | 145 kts | 351° |
| 2026-05-03 20:59 | 38.74411 | -77.02367 | 1501 ft | 145 kts | 349° |
| 2026-05-03 20:59 | 38.75411 | -77.02502 | 1508 ft | 145 kts | 351° |
| 2026-05-03 21:00 | 38.76438 | -77.02599 | 1339 ft | 145 kts | 352° |
| 2026-05-03 21:00 | 38.77106 | -77.02630 | 1185 ft | 146 kts | 353° |
| 2026-05-03 21:00 | 38.78443 | -77.02731 | 839 ft | 142 kts | 351° |
| 2026-05-03 21:00 | 38.79416 | -77.02904 | 720 ft | 139 kts | 346° |
| 2026-05-03 21:01 | 38.80386 | -77.03101 | 664 ft | 143 kts | 347° |
| 2026-05-03 21:01 | 38.81393 | -77.03304 | 546 ft | 149 kts | 346° |
| 2026-05-03 21:01 | 38.82444 | -77.03478 | 340 ft | 154 kts | 351° |
| 2026-05-03 21:01 | 38.83462 | -77.03586 | 126 ft | 140 kts | 348° |
| 2026-05-03 21:02 | 38.84430 | -77.03700 | 25 ft | 138 kts | 351° |
| 2026-05-03 21:02 | 38.85218 | -77.03782 | 22 ft | 79 kts | 354° |
| 2026-05-03 21:02 | 38.85499 | -77.03853 | 22 ft | 12 kts | 317° |
| 2026-05-03 21:02 | 38.85519 | -77.03945 | 23 ft | 10 kts | 244° |
| 2026-05-03 21:03 | 38.85492 | -77.04007 | 23 ft | 2 kts | 237° |
| 2026-05-03 21:03 | 38.85479 | -77.04033 | 23 ft | 7 kts | 236° |
| 2026-05-03 21:03 | 38.85468 | -77.04052 | 23 ft | 5 kts | 236° |
| 2026-05-03 21:03 | 38.85462 | -77.04064 | 24 ft | 1 kts | 236° |
| 2026-05-03 21:04 | 38.85457 | -77.04073 | 24 ft | 0 kts | 236° |
| 2026-05-03 21:04 | 38.85455 | -77.04077 | 24 ft | 0 kts | 236° |